createdAt,value
2023-01-20T00:01:34.114Z,100332.38
2023-01-20T00:04:02.315Z,100335.84
2023-01-20T00:06:31.778Z,100339.31
2023-01-20T00:09:01.301Z,100346.34
2023-01-20T00:11:29.914Z,100344.56
2023-01-20T00:13:59.244Z,100342.00
2023-01-20T00:16:28.341Z,100355.06
2023-01-20T00:18:56.719Z,100353.31
2023-01-20T00:21:24.831Z,100358.50
2023-01-20T00:23:54.560Z,100355.00
2023-01-20T00:26:25.322Z,100368.13
2023-01-20T00:28:55.702Z,100372.53
2023-01-20T00:31:25.544Z,100370.75
2023-01-20T00:33:55.566Z,100371.59
2023-01-20T00:36:24.552Z,100374.25
2023-01-20T00:38:54.164Z,100380.41
2023-01-20T00:41:22.162Z,100388.25
2023-01-20T00:43:50.423Z,100393.50
2023-01-20T00:46:18.669Z,100396.97
2023-01-20T00:48:46.749Z,100397.00
2023-01-20T00:51:14.916Z,100398.72
2023-01-20T00:53:43.138Z,100401.38
2023-01-20T00:56:12.501Z,100406.66
2023-01-20T00:58:40.559Z,100406.59
2023-01-20T01:01:08.940Z,100407.53
2023-01-20T01:03:38.022Z,100411.03
2023-01-20T01:06:12.690Z,100408.38
2023-01-20T01:08:42.179Z,100419.78
2023-01-20T01:11:13.014Z,100419.75
2023-01-20T01:13:41.254Z,100422.41
2023-01-20T01:16:12.374Z,100425.00
2023-01-20T01:18:40.936Z,100431.97
2023-01-20T01:21:09.812Z,100431.09
2023-01-20T01:23:37.877Z,100438.13
2023-01-20T01:26:06.475Z,100439.88
2023-01-20T01:28:35.765Z,100433.75
2023-01-20T01:31:04.162Z,100451.22
2023-01-20T01:33:33.287Z,100438.09
2023-01-20T01:36:03.167Z,100445.97
2023-01-20T01:38:31.358Z,100435.47
2023-01-20T01:40:59.290Z,100443.34
2023-01-20T01:43:30.254Z,100440.72
2023-01-20T01:45:59.751Z,100452.94
2023-01-20T01:48:30.885Z,100444.16
2023-01-20T01:51:03.465Z,100443.25
2023-01-20T01:53:37.177Z,100443.25
2023-01-20T01:56:05.948Z,100449.41
2023-01-20T01:58:36.744Z,100452.00
2023-01-20T02:01:06.436Z,100449.41
2023-01-20T02:03:43.331Z,100458.88
2023-01-20T02:06:12.351Z,100462.38
2023-01-20T02:08:40.999Z,100458.91
2023-01-20T02:11:09.051Z,100466.69
2023-01-20T02:13:37.058Z,100458.94
2023-01-20T02:16:16.042Z,100465.03
2023-01-20T02:19:02.894Z,100463.31
2023-01-20T02:22:01.711Z,100465.94
2023-01-20T02:25:13.693Z,100470.16
2023-01-20T02:28:08.490Z,100472.84
2023-01-20T02:30:49.495Z,100484.03
2023-01-20T02:33:24.708Z,100479.78
2023-01-20T02:36:11.099Z,100489.31
2023-01-20T02:38:44.049Z,100489.31
2023-01-20T02:41:18.897Z,100491.88
2023-01-20T02:43:51.977Z,100496.28
2023-01-20T02:46:26.576Z,100497.97
2023-01-20T02:49:01.734Z,100498.00
2023-01-20T02:51:38.095Z,100499.72
2023-01-20T02:54:09.550Z,100499.88
2023-01-20T02:56:38.354Z,100499.81
2023-01-20T02:59:12.396Z,100503.31
2023-01-20T03:01:43.922Z,100501.56
2023-01-20T03:04:16.460Z,100500.63
2023-01-20T03:06:48.384Z,100509.44
2023-01-20T03:09:21.069Z,100504.28
2023-01-20T03:11:55.060Z,100501.56
2023-01-20T03:14:23.433Z,100504.25
2023-01-20T03:16:51.689Z,100508.66
2023-01-20T03:19:21.597Z,100515.72
2023-01-20T03:21:50.034Z,100519.25
2023-01-20T03:24:18.033Z,100521.84
2023-01-20T03:26:46.053Z,100527.03
2023-01-20T03:29:16.009Z,100526.19
2023-01-20T03:31:48.501Z,100533.16
2023-01-20T03:34:19.387Z,100540.13
2023-01-20T03:36:49.197Z,100529.41
2023-01-20T03:39:18.110Z,100538.38
2023-01-20T03:41:56.077Z,100548.88
2023-01-20T03:44:33.546Z,100550.63
2023-01-20T03:47:11.190Z,100555.81
2023-01-20T03:49:45.941Z,100566.34
2023-01-20T03:52:46.944Z,100570.72
2023-01-20T03:55:17.550Z,100569.88
2023-01-20T03:57:50.884Z,100579.44
2023-01-20T04:00:22.587Z,100573.25
2023-01-20T04:02:51.359Z,100584.66
2023-01-20T04:05:19.710Z,100582.84
2023-01-20T04:07:51.104Z,100590.78
2023-01-20T04:10:20.018Z,100592.50
2023-01-20T04:12:48.193Z,100589.84
2023-01-20T04:15:18.027Z,100588.91
2023-01-20T04:17:46.082Z,100589.81
2023-01-20T04:20:16.233Z,100585.44
2023-01-20T04:22:52.004Z,100589.84
2023-01-20T04:25:29.371Z,100590.75
2023-01-20T04:27:57.332Z,100596.84
2023-01-20T04:30:25.614Z,100600.38
2023-01-20T04:32:53.497Z,100603.00
2023-01-20T04:35:21.675Z,100609.09
2023-01-20T04:37:51.437Z,100609.94
2023-01-20T04:40:19.543Z,100615.09
2023-01-20T04:42:47.468Z,100616.00
2023-01-20T04:45:17.003Z,100613.28
2023-01-20T04:47:47.164Z,100614.78
2023-01-20T04:50:16.467Z,100618.22
2023-01-20T04:52:44.890Z,100610.50
2023-01-20T04:55:15.023Z,100616.75
2023-01-20T04:57:43.279Z,100622.00
2023-01-20T05:00:18.545Z,100622.00
2023-01-20T05:02:46.925Z,100622.09
2023-01-20T05:05:15.331Z,100618.47
2023-01-20T05:07:43.631Z,100624.72
2023-01-20T05:10:13.356Z,100617.69
2023-01-20T05:12:43.225Z,100625.56
2023-01-20T05:15:11.728Z,100627.28
2023-01-20T05:17:39.720Z,100628.13
2023-01-20T05:20:08.435Z,100630.78
2023-01-20T05:22:36.653Z,100636.97
2023-01-20T05:25:04.872Z,100644.84
2023-01-20T05:27:35.211Z,100639.63
2023-01-20T05:30:05.538Z,100639.59
2023-01-20T05:32:33.790Z,100648.38
2023-01-20T05:35:01.687Z,100651.00
2023-01-20T05:37:29.616Z,100650.09
2023-01-20T05:39:57.616Z,100657.94
2023-01-20T05:42:25.525Z,100657.16
2023-01-20T05:44:53.386Z,100659.78
2023-01-20T05:47:22.961Z,100661.47
2023-01-20T05:49:51.321Z,100665.91
2023-01-20T05:52:19.311Z,100672.22
2023-01-20T05:54:47.238Z,100674.97
2023-01-20T05:57:18.208Z,100673.97
2023-01-20T05:59:47.619Z,100678.28
2023-01-20T06:02:18.689Z,100669.34
2023-01-20T06:04:48.267Z,100676.41
2023-01-20T06:07:16.819Z,100679.91
2023-01-20T06:09:44.792Z,100678.06
2023-01-20T06:12:12.741Z,100686.00
2023-01-20T06:14:40.547Z,100684.22
2023-01-20T06:17:08.579Z,100687.75
2023-01-20T06:19:36.456Z,100697.47
2023-01-20T06:22:05.900Z,100690.47
2023-01-20T06:24:33.851Z,100701.09
2023-01-20T06:27:01.657Z,100704.72
2023-01-20T06:29:29.555Z,100708.31
2023-01-20T06:31:57.463Z,100717.84
2023-01-20T06:34:25.950Z,100718.75
2023-01-20T06:36:54.073Z,100721.31
2023-01-20T06:39:23.453Z,100726.63
2023-01-20T06:41:51.399Z,100727.56
2023-01-20T06:44:19.433Z,100730.25
2023-01-20T06:46:48.381Z,100743.44
2023-01-20T06:49:16.392Z,100737.34
2023-01-20T06:51:44.546Z,100743.47
2023-01-20T06:54:18.168Z,100745.19
2023-01-20T06:56:47.550Z,100750.47
2023-01-20T06:59:15.508Z,100752.22
2023-01-20T07:01:43.457Z,100750.47
2023-01-20T07:04:14.982Z,100755.72
2023-01-20T07:06:43.390Z,100756.56
2023-01-20T07:09:13.583Z,100752.16
2023-01-20T07:11:41.814Z,100752.16
2023-01-20T07:14:11.358Z,100758.19
2023-01-20T07:16:39.418Z,100757.34
2023-01-20T07:19:07.575Z,100767.88
2023-01-20T07:21:35.476Z,100778.28
2023-01-20T07:24:03.316Z,100779.22
2023-01-20T07:26:32.387Z,100784.53
2023-01-20T07:29:00.839Z,100794.09
2023-01-20T07:31:31.398Z,100789.78
2023-01-20T07:34:00.088Z,100801.19
2023-01-20T07:36:28.181Z,100795.94
2023-01-20T07:38:56.233Z,100800.38
2023-01-20T07:41:24.292Z,100805.59
2023-01-20T07:43:53.689Z,100817.00
2023-01-20T07:46:22.822Z,100815.31
2023-01-20T07:48:52.056Z,100827.50
2023-01-20T07:51:19.938Z,100833.56
2023-01-20T07:53:50.785Z,100830.06
2023-01-20T07:56:20.431Z,100836.16
2023-01-20T07:58:50.518Z,100839.56
2023-01-20T08:01:20.270Z,100835.88
2023-01-20T08:03:49.001Z,100839.41
2023-01-20T08:06:20.464Z,100839.50
2023-01-20T08:08:49.435Z,100832.47
2023-01-20T08:11:19.183Z,100843.78
2023-01-20T08:13:48.224Z,100843.91
2023-01-20T08:16:18.292Z,100846.63
2023-01-20T08:18:46.913Z,100850.16
2023-01-20T08:21:22.319Z,100859.78
2023-01-20T08:23:50.693Z,100855.47
2023-01-20T08:26:19.906Z,100859.78
2023-01-20T08:28:48.908Z,100861.44
2023-01-20T08:31:20.141Z,100866.72
2023-01-20T08:33:49.588Z,100869.22
2023-01-20T08:36:21.419Z,100879.47
2023-01-20T08:38:49.793Z,100876.00
2023-01-20T08:41:19.987Z,100888.50
2023-01-20T08:43:47.989Z,100893.06
2023-01-20T08:46:18.141Z,100888.00
2023-01-20T08:48:46.468Z,100896.81
2023-01-20T08:51:16.988Z,100905.66
2023-01-20T08:53:46.312Z,100908.34
2023-01-20T08:56:14.632Z,100906.56
2023-01-20T08:58:42.601Z,100911.88
2023-01-20T09:01:11.554Z,100910.94
2023-01-20T09:03:39.948Z,100920.53
2023-01-20T09:06:09.596Z,100909.19
2023-01-20T09:08:38.202Z,100917.09
2023-01-20T09:11:09.361Z,100916.19
2023-01-20T09:13:37.483Z,100917.91
2023-01-20T09:16:06.486Z,100925.84
2023-01-20T09:18:36.050Z,100922.34
2023-01-20T09:21:06.654Z,100926.78
2023-01-20T09:23:35.948Z,100935.50
2023-01-20T09:26:05.176Z,100938.22
2023-01-20T09:28:35.130Z,100939.13
2023-01-20T09:31:05.406Z,100937.34
2023-01-20T09:33:36.057Z,100951.38
2023-01-20T09:36:05.560Z,100953.00
2023-01-20T09:38:51.017Z,100950.97
2023-01-20T09:41:43.992Z,100952.69
2023-01-20T09:44:32.828Z,100958.91
2023-01-20T09:47:22.835Z,100967.63
2023-01-20T09:50:25.511Z,100966.97
2023-01-20T09:53:04.851Z,100972.22
2023-01-20T09:55:39.783Z,100968.81
2023-01-20T09:58:14.911Z,100977.66
2023-01-20T10:00:49.016Z,100972.22
2023-01-20T10:03:23.068Z,100981.22
2023-01-20T10:05:53.900Z,100969.78
2023-01-20T10:08:27.787Z,100977.66
2023-01-20T10:11:04.359Z,100987.41
2023-01-20T10:13:35.948Z,100978.50
2023-01-20T10:16:12.440Z,100985.47
2023-01-20T10:18:47.630Z,100987.16
2023-01-20T10:21:21.695Z,100978.44
2023-01-20T10:23:53.699Z,100969.75
2023-01-20T10:26:27.608Z,100982.09
2023-01-20T10:29:00.717Z,100982.06
2023-01-20T10:31:34.644Z,100977.59
2023-01-20T10:34:12.252Z,100974.19
2023-01-20T10:36:44.665Z,100980.38
2023-01-20T10:39:22.635Z,100976.88
2023-01-20T10:41:54.643Z,100976.88
2023-01-20T10:44:23.749Z,100983.03
2023-01-20T10:47:08.590Z,100983.03
2023-01-20T10:50:02.799Z,100981.25
2023-01-20T10:52:45.148Z,100987.41
2023-01-20T10:55:26.995Z,101001.44
2023-01-20T10:58:00.101Z,100991.75
2023-01-20T11:00:30.824Z,100997.94
2023-01-20T11:03:03.250Z,100997.94
2023-01-20T11:05:33.299Z,101005.81
2023-01-20T11:08:03.145Z,101003.97
2023-01-20T11:10:33.869Z,101003.91
2023-01-20T11:13:03.265Z,101000.19
2023-01-20T11:15:33.430Z,101010.03
2023-01-20T11:18:24.244Z,101018.78
2023-01-20T11:20:54.408Z,101019.50
2023-01-20T11:23:24.580Z,101020.38
2023-01-20T11:25:57.313Z,101018.94
2023-01-20T11:28:26.060Z,101019.41
2023-01-20T11:30:56.818Z,101034.09
2023-01-20T11:33:28.261Z,101027.78
2023-01-20T11:36:01.467Z,101033.97
2023-01-20T11:38:30.588Z,101032.09
2023-01-20T11:41:06.473Z,101042.03
2023-01-20T11:43:37.814Z,101036.31
2023-01-20T11:46:24.117Z,101036.75
2023-01-20T11:49:13.447Z,101041.69
2023-01-20T11:51:47.027Z,101046.06
2023-01-20T11:54:17.823Z,101043.50
2023-01-20T11:56:48.278Z,101045.72
2023-01-20T11:59:29.110Z,101047.81
2023-01-20T12:02:01.559Z,101051.47
2023-01-20T12:04:44.265Z,101055.84
2023-01-20T12:07:26.757Z,101060.28
2023-01-20T12:09:59.359Z,101064.13
2023-01-20T12:12:50.575Z,101070.59
2023-01-20T12:15:22.824Z,101072.25
2023-01-20T12:17:57.231Z,101071.72
2023-01-20T12:20:31.937Z,101076.16
2023-01-20T12:23:12.192Z,101071.56
2023-01-20T12:25:47.607Z,101069.38
2023-01-20T12:28:21.256Z,101072.44
2023-01-20T12:30:57.212Z,101078.25
2023-01-20T12:33:29.819Z,101073.28
2023-01-20T12:36:28.475Z,101079.25
2023-01-20T12:39:14.146Z,101088.66
2023-01-20T12:42:05.849Z,101094.25
2023-01-20T12:44:40.371Z,101084.84
2023-01-20T12:47:21.898Z,101091.91
2023-01-20T12:50:04.225Z,101090.38
2023-01-20T12:52:47.167Z,101092.72
2023-01-20T12:55:27.866Z,101098.28
2023-01-20T12:58:08.346Z,101105.91
2023-01-20T13:00:57.243Z,101104.66
2023-01-20T13:03:56.919Z,101104.94
2023-01-20T13:06:39.385Z,101105.63
2023-01-20T13:09:25.786Z,101109.00
2023-01-20T13:12:06.293Z,101110.53
2023-01-20T13:14:40.670Z,101107.88
2023-01-20T13:17:17.382Z,101108.91
2023-01-20T13:19:48.264Z,101116.47
2023-01-20T13:22:19.911Z,101111.13
2023-01-20T13:24:49.792Z,101112.31
2023-01-20T13:27:24.421Z,101113.44
2023-01-20T13:30:06.915Z,101122.88
2023-01-20T13:32:38.789Z,101120.34
2023-01-20T13:35:44.260Z,101127.47
2023-01-20T13:38:21.777Z,101129.41
2023-01-20T13:40:55.846Z,101129.47
2023-01-20T13:43:56.970Z,101133.09
2023-01-20T13:46:47.673Z,101137.44
2023-01-20T13:49:30.896Z,101148.91
2023-01-20T13:51:58.921Z,101151.50
2023-01-20T13:54:48.751Z,101148.81
2023-01-20T13:57:46.482Z,101160.25
2023-01-20T14:00:18.454Z,101161.94
2023-01-20T14:02:48.560Z,101156.75
2023-01-20T14:05:25.792Z,101165.44
2023-01-20T14:08:00.492Z,101173.28
2023-01-20T14:10:28.605Z,101170.59
2023-01-20T14:12:56.576Z,101170.75
2023-01-20T14:15:38.602Z,101174.41
2023-01-20T14:18:15.022Z,101177.06
2023-01-20T14:20:45.341Z,101185.75
2023-01-20T14:23:33.809Z,101188.47
2023-01-20T14:26:05.038Z,101191.13
2023-01-20T14:28:33.175Z,101193.72
2023-01-20T14:31:24.408Z,101199.94
2023-01-20T14:33:57.633Z,101205.16
2023-01-20T14:36:28.296Z,101212.22
2023-01-20T14:38:58.830Z,101208.66
2023-01-20T14:41:33.252Z,101215.72
2023-01-20T14:44:01.956Z,101218.34
2023-01-20T14:46:33.675Z,101230.66
2023-01-20T14:49:02.549Z,101227.16
2023-01-20T14:51:30.565Z,101219.22
2023-01-20T14:54:40.041Z,101220.97
2023-01-20T14:57:21.948Z,101240.34
2023-01-20T15:00:02.934Z,101236.81
2023-01-20T15:02:34.997Z,101241.22
2023-01-20T15:05:37.317Z,101247.34
2023-01-20T15:08:24.338Z,101247.38
2023-01-20T15:11:22.424Z,101259.66
2023-01-20T15:14:10.080Z,101265.81
2023-01-20T15:16:49.647Z,101269.34
2023-01-20T15:19:38.065Z,101271.97
2023-01-20T15:22:18.693Z,101283.41
2023-01-20T15:24:49.421Z,101289.56
2023-01-20T15:27:30.391Z,101294.84
2023-01-20T15:30:04.032Z,101294.84
2023-01-20T15:32:31.741Z,101304.53
2023-01-20T15:35:00.857Z,101303.66
2023-01-20T15:37:28.577Z,101312.44
2023-01-20T15:39:56.261Z,101323.88
2023-01-20T15:42:24.288Z,101319.47
2023-01-20T15:44:52.003Z,101324.75
2023-01-20T15:47:21.890Z,101328.25
2023-01-20T15:49:49.647Z,101331.75
2023-01-20T15:52:19.323Z,101338.81
2023-01-20T15:54:47.034Z,101345.88
2023-01-20T15:57:15.806Z,101344.09
2023-01-20T15:59:45.320Z,101352.88
2023-01-20T16:02:18.587Z,101354.59
2023-01-20T16:04:46.643Z,101359.81
2023-01-20T16:07:16.318Z,101363.41
2023-01-20T16:09:46.693Z,101368.63
2023-01-20T16:12:15.230Z,101365.16
2023-01-20T16:14:43.373Z,101373.94
2023-01-20T16:17:15.809Z,101379.25
2023-01-20T16:19:43.576Z,101388.09
2023-01-20T16:22:13.374Z,101384.50
2023-01-20T16:24:41.426Z,101383.66
2023-01-20T16:27:18.146Z,101391.56
2023-01-20T16:29:46.044Z,101396.78
2023-01-20T16:32:17.129Z,101396.81
2023-01-20T16:34:46.620Z,101406.47
2023-01-20T16:37:15.015Z,101410.91
2023-01-20T16:39:42.861Z,101404.75
2023-01-20T16:42:14.446Z,101411.81
2023-01-20T16:44:42.245Z,101412.69
2023-01-20T16:47:10.258Z,101410.88
2023-01-20T16:49:38.891Z,101417.88
2023-01-20T16:52:06.775Z,101418.78
2023-01-20T16:54:34.851Z,101429.19
2023-01-20T16:57:02.595Z,101431.69
2023-01-20T16:59:31.754Z,101447.50
2023-01-20T17:01:59.477Z,101444.88
2023-01-20T17:04:27.319Z,101446.59
2023-01-20T17:06:55.080Z,101449.97
2023-01-20T17:09:22.932Z,101456.09
2023-01-20T17:11:50.640Z,101456.16
2023-01-20T17:14:18.394Z,101463.31
2023-01-20T17:16:47.404Z,101462.31
2023-01-20T17:19:17.557Z,101461.53
2023-01-20T17:21:45.473Z,101472.06
2023-01-20T17:24:13.301Z,101477.09
2023-01-20T17:26:41.348Z,101482.25
2023-01-20T17:29:09.113Z,101488.31
2023-01-20T17:31:37.290Z,101490.38
2023-01-20T17:34:07.567Z,101492.88
2023-01-20T17:36:35.573Z,101495.22
2023-01-20T17:39:04.590Z,101505.22
2023-01-20T17:41:32.553Z,101505.19
2023-01-20T17:44:00.396Z,101506.31
2023-01-20T17:46:30.169Z,101508.66
2023-01-20T17:48:58.603Z,101519.41
2023-01-20T17:51:29.783Z,101527.19
2023-01-20T17:53:58.763Z,101523.69
2023-01-20T17:56:27.397Z,101529.91
2023-01-20T17:58:55.128Z,101528.81
2023-01-20T18:01:25.539Z,101529.63
2023-01-20T18:03:55.308Z,101535.03
2023-01-20T18:06:24.303Z,101538.31
2023-01-20T18:08:55.431Z,101553.97
2023-01-20T18:11:24.090Z,101556.69
2023-01-20T18:13:53.403Z,101555.47
2023-01-20T18:16:22.427Z,101563.44
2023-01-20T18:18:50.800Z,101566.59
2023-01-20T18:21:20.190Z,101571.97
2023-01-20T18:23:49.945Z,101572.16
2023-01-20T18:26:21.214Z,101577.53
2023-01-20T18:28:49.469Z,101575.53
2023-01-20T18:31:19.975Z,101584.47
2023-01-20T18:33:50.100Z,101579.88
2023-01-20T18:36:19.878Z,101582.22
2023-01-20T18:38:51.102Z,101590.13
2023-01-20T18:41:20.978Z,101593.00
2023-01-20T18:43:49.875Z,101601.69
2023-01-20T18:46:18.037Z,101599.88
2023-01-20T18:48:48.919Z,101609.41
2023-01-20T18:51:20.349Z,101608.47
2023-01-20T18:53:54.875Z,101605.09
2023-01-20T18:56:25.185Z,101613.88
2023-01-20T18:58:54.698Z,101616.44
2023-01-20T19:01:25.156Z,101621.13
2023-01-20T19:03:54.160Z,101619.28
2023-01-20T19:06:24.615Z,101619.13
2023-01-20T19:08:53.560Z,101629.59
2023-01-20T19:11:25.569Z,101627.63
2023-01-20T19:13:54.775Z,101631.44
2023-01-20T19:16:24.899Z,101636.34
2023-01-20T19:18:54.682Z,101636.03
2023-01-20T19:21:24.258Z,101640.47
2023-01-20T19:23:53.843Z,101642.31
2023-01-20T19:26:23.313Z,101648.56
2023-01-20T19:28:57.886Z,101652.56
2023-01-20T19:31:26.048Z,101662.69
2023-01-20T19:33:56.217Z,101652.97
2023-01-20T19:36:28.156Z,101656.38
2023-01-20T19:39:00.912Z,101653.00
2023-01-20T19:41:37.655Z,101665.09
2023-01-20T19:44:18.977Z,101666.69
2023-01-20T19:46:48.580Z,101659.56
2023-01-20T19:49:16.470Z,101678.59
2023-01-20T19:51:44.264Z,101671.63
2023-01-20T19:54:14.514Z,101672.22
2023-01-20T19:56:42.450Z,101674.09
2023-01-20T19:59:13.522Z,101678.25
2023-01-20T20:01:41.548Z,101689.69
2023-01-20T20:04:12.785Z,101694.44
2023-01-20T20:06:45.661Z,101688.53
2023-01-20T20:09:17.661Z,101698.13
2023-01-20T20:11:45.876Z,101704.94
2023-01-20T20:14:16.871Z,101699.91
2023-01-20T20:16:44.638Z,101705.41
2023-01-20T20:19:14.156Z,101710.06
2023-01-20T20:21:41.883Z,101706.13
2023-01-20T20:24:15.800Z,101717.88
2023-01-20T20:26:45.531Z,101720.31
2023-01-20T20:29:15.914Z,101720.97
2023-01-20T20:31:43.749Z,101723.63
2023-01-20T20:34:14.560Z,101724.56
2023-01-20T20:36:42.385Z,101727.81
2023-01-20T20:39:13.341Z,101722.41
2023-01-20T20:41:41.435Z,101732.25
2023-01-20T20:44:10.911Z,101734.88
2023-01-20T20:46:40.589Z,101740.97
2023-01-20T20:49:09.783Z,101736.19
2023-01-20T20:51:37.471Z,101741.38
2023-01-20T20:54:05.199Z,101739.91
2023-01-20T20:56:32.925Z,101747.72
2023-01-20T20:59:03.056Z,101746.81
2023-01-20T21:01:33.405Z,101755.34
2023-01-20T21:04:03.690Z,101756.16
2023-01-20T21:06:32.428Z,101755.41
2023-01-20T21:09:00.615Z,101765.13
2023-01-20T21:11:28.921Z,101770.72
2023-01-20T21:13:56.864Z,101764.53
2023-01-20T21:16:25.621Z,101775.44
2023-01-20T21:18:55.983Z,101769.75
2023-01-20T21:21:28.824Z,101764.72
2023-01-20T21:23:58.435Z,101767.97
2023-01-20T21:26:30.180Z,101775.75
2023-01-20T21:29:00.159Z,101770.72
2023-01-20T21:31:28.072Z,101784.31
2023-01-20T21:33:58.277Z,101784.22
2023-01-20T21:36:28.787Z,101787.53
2023-01-20T21:38:56.549Z,101785.56
2023-01-20T21:41:24.298Z,101792.47
2023-01-20T21:44:09.543Z,101793.75
2023-01-20T21:46:39.878Z,101794.88
2023-01-20T21:49:25.751Z,101802.94
2023-01-20T21:52:12.714Z,101801.41
2023-01-20T21:54:41.275Z,101814.66
2023-01-20T21:57:09.925Z,101818.22
2023-01-20T21:59:37.722Z,101814.91
2023-01-20T22:02:05.683Z,101814.13
2023-01-20T22:04:33.794Z,101815.75
2023-01-20T22:07:02.884Z,101822.84
2023-01-20T22:09:30.848Z,101807.81
2023-01-20T22:11:58.623Z,101824.75
2023-01-20T22:14:26.427Z,101830.94
2023-01-20T22:16:54.214Z,101831.41
2023-01-20T22:19:21.959Z,101838.72
2023-01-20T22:21:49.762Z,101837.63
2023-01-20T22:24:19.219Z,101841.50
2023-01-20T22:26:47.973Z,101838.09
2023-01-20T22:29:15.956Z,101847.75
2023-01-20T22:31:44.000Z,101845.91
2023-01-20T22:34:12.140Z,101849.53
2023-01-20T22:36:40.615Z,101845.06
2023-01-20T22:39:08.724Z,101854.28
2023-01-20T22:41:37.769Z,101856.28
2023-01-20T22:44:05.476Z,101853.00
2023-01-20T22:46:33.529Z,101867.59
2023-01-20T22:49:01.296Z,101862.97
2023-01-20T22:51:30.720Z,101870.06
2023-01-20T22:54:02.754Z,101872.00
2023-01-20T22:56:32.173Z,101876.59
2023-01-20T22:59:01.780Z,101879.81
2023-01-20T23:01:32.341Z,101876.66
2023-01-20T23:04:02.351Z,101879.72
2023-01-20T23:06:32.572Z,101882.38
2023-01-20T23:09:00.598Z,101885.63
2023-01-20T23:11:28.804Z,101879.75
2023-01-20T23:13:56.676Z,101889.97
2023-01-20T23:16:25.872Z,101891.34
2023-01-20T23:18:53.711Z,101896.22
2023-01-20T23:21:22.666Z,101892.72
2023-01-20T23:23:54.216Z,101898.88
2023-01-20T23:26:23.987Z,101911.22
2023-01-20T23:28:53.437Z,101906.19
2023-01-20T23:31:22.198Z,101901.13
2023-01-20T23:33:51.681Z,101912.50
2023-01-20T23:36:21.520Z,101917.81
2023-01-20T23:38:49.687Z,101922.00
2023-01-20T23:41:20.879Z,101923.13
2023-01-20T23:43:48.788Z,101926.91
2023-01-20T23:46:16.525Z,101932.41
2023-01-20T23:48:46.166Z,101932.34
2023-01-20T23:51:15.835Z,101937.34
2023-01-20T23:53:44.175Z,101944.91
2023-01-20T23:56:15.157Z,101939.41
2023-01-20T23:58:43.027Z,101942.66
